Time;durP1;ratioP1;P1;durP2;ratioP2;P2;SDS_P1;SDS_P2;PMS_P1;PMS_P2;Temp;Humidity;BMP_temperature;BMP_pressure;BME280_temperature;BME280_humidity;BME280_pressure;Samples;Min_cycle;Max_cycle;Signal;HPM_P1;HPM_P2
2023/03/30 00:02:03;;;;;;;56.00;38.53;;;;;;;;;;5012340;28;20413;-77
2023/03/30 00:04:33;;;;;;;50.85;36.53;;;;;;;;;;5011369;28;20103;-76
2023/03/30 00:06:59;;;;;;;55.15;39.88;;;;;;;;;;5010158;28;20568;-76
2023/03/30 00:09:29;;;;;;;57.95;37.75;;;;;;;;;;5012812;28;20038;-76
2023/03/30 00:11:55;;;;;;;57.97;39.75;;;;;;;;;;5016680;28;20057;-76
2023/03/30 00:14:28;;;;;;;60.80;40.40;;;;;;;;;;5017242;28;20134;-76
2023/03/30 00:16:55;;;;;;;53.65;39.83;;;;;;;;;;5014865;28;20065;-76
2023/03/30 00:19:21;;;;;;;61.28;39.40;;;;;;;;;;5015474;28;20873;-76
2023/03/30 00:21:48;;;;;;;58.83;40.25;;;;;;;;;;5013573;28;20041;-76
2023/03/30 00:24:14;;;;;;;63.58;39.72;;;;;;;;;;4997453;28;20124;-77
2023/03/30 00:26:40;;;;;;;59.08;38.30;;;;;;;;;;5008948;28;20083;-76
2023/03/30 00:29:06;;;;;;;56.05;38.40;;;;;;;;;;5012147;28;20077;-77
2023/03/30 00:31:32;;;;;;;52.80;37.63;;;;;;;;;;5009827;28;20052;-77
2023/03/30 00:33:59;;;;;;;52.70;38.05;;;;;;;;;;5013432;28;20036;-77
2023/03/30 00:36:25;;;;;;;56.10;38.17;;;;;;;;;;5010478;28;20148;-77
2023/03/30 00:38:51;;;;;;;51.63;36.28;;;;;;;;;;5010404;28;21897;-77
2023/03/30 00:41:18;;;;;;;57.63;37.67;;;;;;;;;;5008980;28;20059;-77
2023/03/30 00:43:54;;;;;;;61.65;38.38;;;;;;;;;;5013014;28;20049;-76
2023/03/30 00:46:22;;;;;;;50.83;37.65;;;;;;;;;;5011704;28;20046;-76
2023/03/30 00:48:48;;;;;;;55.83;37.05;;;;;;;;;;5012182;28;20079;-76
2023/03/30 00:51:14;;;;;;;49.88;37.78;;;;;;;;;;5012329;28;20045;-76
2023/03/30 00:53:41;;;;;;;50.50;36.47;;;;;;;;;;5012776;28;20084;-76
2023/03/30 00:56:10;;;;;;;55.60;36.45;;;;;;;;;;5017789;28;20140;-76
2023/03/30 00:58:38;;;;;;;51.13;35.22;;;;;;;;;;4999450;28;20131;-76
2023/03/30 01:01:06;;;;;;;51.60;34.30;;;;;;;;;;4995290;28;20060;-75
2023/03/30 01:03:36;;;;;;;50.85;33.83;;;;;;;;;;5010155;28;20159;-76
2023/03/30 01:06:04;;;;;;;47.58;33.65;;;;;;;;;;5012341;28;20049;-76
2023/03/30 01:08:33;;;;;;;47.83;33.05;;;;;;;;;;5010784;28;20123;-76
2023/03/30 01:11:00;;;;;;;48.78;32.58;;;;;;;;;;5015878;28;20060;-76
2023/03/30 01:13:31;;;;;;;44.22;31.73;;;;;;;;;;5014818;28;20056;-76
2023/03/30 01:15:57;;;;;;;44.92;29.67;;;;;;;;;;5016891;28;20139;-76
2023/03/30 01:18:32;;;;;;;42.15;28.67;;;;;;;;;;5011624;28;20045;-76
2023/03/30 01:21:12;;;;;;;41.63;29.15;;;;;;;;;;5014046;28;20132;-77
2023/03/30 01:23:57;;;;;;;43.08;28.63;;;;;;;;;;5010962;28;20053;-76
2023/03/30 01:26:47;;;;;;;38.13;26.88;;;;;;;;;;5001314;28;20055;-76
2023/03/30 01:29:13;;;;;;;41.30;27.65;;;;;;;;;;5004186;28;20516;-76
2023/03/30 01:31:50;;;;;;;39.28;26.15;;;;;;;;;;5006190;28;20171;-76
2023/03/30 01:34:42;;;;;;;38.17;28.33;;;;;;;;;;5006243;28;20103;-76
2023/03/30 01:37:14;;;;;;;38.78;26.75;;;;;;;;;;5004830;28;20186;-76
2023/03/30 01:39:44;;;;;;;36.72;26.88;;;;;;;;;;5005857;28;20603;-76
2023/03/30 01:42:29;;;;;;;42.28;27.00;;;;;;;;;;5016497;28;20044;-76
2023/03/30 01:45:19;;;;;;;37.05;26.25;;;;;;;;;;5011738;28;20049;-76
2023/03/30 01:47:56;;;;;;;39.70;28.05;;;;;;;;;;5007444;28;20049;-76
2023/03/30 01:50:34;;;;;;;38.15;28.08;;;;;;;;;;5001020;28;20037;-76
2023/03/30 01:53:06;;;;;;;33.95;25.02;;;;;;;;;;5001683;28;20409;-76
2023/03/30 01:55:44;;;;;;;33.10;23.83;;;;;;;;;;4999485;28;20562;-76
2023/03/30 01:58:10;;;;;;;33.67;24.55;;;;;;;;;;5001323;28;20080;-76
2023/03/30 02:00:39;;;;;;;39.33;24.80;;;;;;;;;;5006712;28;20103;-76
2023/03/30 02:03:11;;;;;;;33.45;25.33;;;;;;;;;;5015402;28;20406;-76
2023/03/30 02:05:37;;;;;;;34.40;23.50;;;;;;;;;;5012469;28;20049;-75
2023/03/30 02:08:12;;;;;;;31.80;22.83;;;;;;;;;;5014295;28;20065;-76
2023/03/30 02:10:39;;;;;;;30.50;22.25;;;;;;;;;;5012314;28;20047;-75
2023/03/30 02:13:05;;;;;;;29.50;20.33;;;;;;;;;;5013255;28;20980;-76
2023/03/30 02:15:35;;;;;;;28.83;19.90;;;;;;;;;;5014333;28;20053;-76
2023/03/30 02:18:02;;;;;;;27.27;17.67;;;;;;;;;;5014886;28;20991;-76
2023/03/30 02:20:28;;;;;;;21.77;15.70;;;;;;;;;;5014322;28;20053;-76
2023/03/30 02:22:56;;;;;;;22.48;15.68;;;;;;;;;;5017107;28;20048;-76
2023/03/30 02:25:22;;;;;;;25.73;15.32;;;;;;;;;;5013901;28;20620;-76
2023/03/30 02:27:48;;;;;;;19.13;13.60;;;;;;;;;;5015935;28;20052;-76
2023/03/30 02:30:15;;;;;;;21.33;13.50;;;;;;;;;;5012199;28;20576;-76
2023/03/30 02:32:41;;;;;;;16.48;13.77;;;;;;;;;;5013683;28;20056;-76
2023/03/30 02:35:14;;;;;;;23.63;13.73;;;;;;;;;;5012195;28;20072;-76
2023/03/30 02:37:46;;;;;;;23.13;13.23;;;;;;;;;;5011735;28;20097;-76
2023/03/30 02:40:12;;;;;;;18.13;12.77;;;;;;;;;;5011959;28;20099;-76
2023/03/30 02:42:46;;;;;;;20.90;12.05;;;;;;;;;;5014318;28;20461;-76
2023/03/30 02:45:12;;;;;;;;;;;;;;;;;;5012741;28;20045;-76
2023/03/30 02:47:46;;;;;;;16.05;12.13;;;;;;;;;;5010892;28;19932;-77
2023/03/30 02:50:18;;;;;;;17.83;11.40;;;;;;;;;;5011600;28;20497;-77
2023/03/30 02:53:00;;;;;;;20.25;11.77;;;;;;;;;;5012632;28;20048;-77
2023/03/30 02:55:45;;;;;;;12.75;9.40;;;;;;;;;;5004293;28;20041;-77
2023/03/30 02:58:11;;;;;;;16.58;8.52;;;;;;;;;;5008079;28;20231;-77
2023/03/30 03:00:40;;;;;;;12.50;7.63;;;;;;;;;;5012391;28;20049;-77
2023/03/30 03:03:36;;;;;;;12.20;6.80;;;;;;;;;;5009058;28;20393;-76
2023/03/30 03:06:03;;;;;;;18.17;8.07;;;;;;;;;;5009116;28;20058;-77
2023/03/30 03:08:34;;;;;;;13.25;6.85;;;;;;;;;;5011986;28;20379;-76
2023/03/30 03:11:00;;;;;;;12.95;6.68;;;;;;;;;;5013643;28;20037;-77
2023/03/30 03:13:26;;;;;;;9.70;6.38;;;;;;;;;;5013266;28;20049;-77
2023/03/30 03:15:55;;;;;;;12.60;7.18;;;;;;;;;;5018247;28;20048;-77
2023/03/30 03:18:22;;;;;;;8.98;5.13;;;;;;;;;;5016610;28;20049;-77
2023/03/30 03:20:48;;;;;;;14.73;6.93;;;;;;;;;;5024796;28;20046;-77
2023/03/30 03:23:14;;;;;;;7.65;6.03;;;;;;;;;;5019776;28;20040;-77
2023/03/30 03:25:40;;;;;;;11.18;6.05;;;;;;;;;;5019241;28;20103;-77
2023/03/30 03:28:06;;;;;;;6.45;5.05;;;;;;;;;;5015894;28;20047;-77
2023/03/30 03:30:32;;;;;;;11.90;5.60;;;;;;;;;;5013926;28;20052;-77
2023/03/30 03:32:58;;;;;;;9.23;5.18;;;;;;;;;;5015129;28;20055;-77
2023/03/30 03:35:26;;;;;;;14.60;5.57;;;;;;;;;;5019584;28;21210;-77
2023/03/30 03:37:52;;;;;;;11.40;6.00;;;;;;;;;;5000290;28;20056;-77
2023/03/30 03:40:18;;;;;;;9.93;6.63;;;;;;;;;;5019230;28;21097;-77
2023/03/30 03:42:44;;;;;;;10.27;5.65;;;;;;;;;;5018339;28;20041;-77
2023/03/30 03:45:10;;;;;;;9.45;5.65;;;;;;;;;;5015954;28;20060;-76
2023/03/30 03:47:36;;;;;;;9.18;5.50;;;;;;;;;;5011995;28;20417;-77
2023/03/30 03:50:02;;;;;;;17.40;7.57;;;;;;;;;;5020529;28;20092;-77
2023/03/30 03:52:31;;;;;;;11.05;5.00;;;;;;;;;;5023020;28;20045;-77
2023/03/30 03:54:57;;;;;;;8.27;5.00;;;;;;;;;;5021913;28;20160;-77
2023/03/30 03:57:24;;;;;;;9.38;5.57;;;;;;;;;;5018491;28;20049;-76
2023/03/30 03:59:55;;;;;;;6.38;3.63;;;;;;;;;;5022662;28;20056;-76
2023/03/30 04:02:22;;;;;;;10.07;3.80;;;;;;;;;;5018186;28;20056;-76
2023/03/30 04:04:48;;;;;;;8.57;4.13;;;;;;;;;;5028402;28;20061;-77
2023/03/30 04:07:14;;;;;;;8.98;4.93;;;;;;;;;;5023373;28;20044;-78
2023/03/30 04:09:40;;;;;;;10.35;4.93;;;;;;;;;;5025518;28;20523;-78
2023/03/30 04:12:06;;;;;;;13.68;5.43;;;;;;;;;;5027070;28;20048;-76
2023/03/30 04:14:33;;;;;;;9.90;4.78;;;;;;;;;;5029517;28;20068;-76
2023/03/30 04:16:59;;;;;;;7.20;5.03;;;;;;;;;;5033253;28;20099;-76
2023/03/30 04:19:26;;;;;;;9.40;5.13;;;;;;;;;;5035735;28;20080;-76
2023/03/30 04:21:54;;;;;;;10.45;4.80;;;;;;;;;;5036333;28;20096;-77
2023/03/30 04:24:21;;;;;;;13.07;5.63;;;;;;;;;;5017622;28;20052;-77
2023/03/30 04:26:47;;;;;;;12.23;5.43;;;;;;;;;;5023844;28;20056;-76
2023/03/30 04:29:19;;;;;;;13.57;4.43;;;;;;;;;;5024798;28;20118;-76
2023/03/30 04:31:49;;;;;;;14.98;4.93;;;;;;;;;;5024496;28;20140;-76
2023/03/30 04:34:20;;;;;;;12.15;4.25;;;;;;;;;;5016281;28;20053;-77
2023/03/30 04:36:49;;;;;;;8.45;4.20;;;;;;;;;;5011321;28;20057;-76
2023/03/30 04:39:16;;;;;;;9.35;4.35;;;;;;;;;;5012732;28;20045;-76
2023/03/30 04:41:44;;;;;;;6.05;3.72;;;;;;;;;;5014572;28;20050;-76
2023/03/30 04:44:10;;;;;;;15.88;3.85;;;;;;;;;;5016910;28;20049;-76
2023/03/30 04:46:37;;;;;;;10.68;3.50;;;;;;;;;;5015585;28;20045;-76
2023/03/30 04:49:04;;;;;;;7.55;3.47;;;;;;;;;;5013657;28;20045;-76
2023/03/30 04:51:30;;;;;;;10.98;3.78;;;;;;;;;;5009783;28;20052;-76
2023/03/30 04:53:56;;;;;;;12.80;4.03;;;;;;;;;;5013881;28;20123;-76
2023/03/30 04:56:22;;;;;;;11.40;3.40;;;;;;;;;;5015197;28;20443;-76
2023/03/30 04:58:48;;;;;;;9.00;3.25;;;;;;;;;;5035661;28;21490;-76
2023/03/30 05:01:14;;;;;;;11.75;3.28;;;;;;;;;;5017650;28;20040;-76
2023/03/30 05:03:40;;;;;;;12.85;3.67;;;;;;;;;;5016770;28;20122;-76
2023/03/30 05:06:07;;;;;;;11.88;3.80;;;;;;;;;;5018547;28;20044;-76
2023/03/30 05:08:34;;;;;;;8.88;3.78;;;;;;;;;;5018816;28;20068;-77
2023/03/30 05:11:03;;;;;;;12.75;3.42;;;;;;;;;;5016957;28;20068;-76
2023/03/30 05:13:30;;;;;;;10.98;4.03;;;;;;;;;;5021755;28;20048;-76
2023/03/30 05:15:57;;;;;;;7.50;4.30;;;;;;;;;;5020265;28;20045;-77
2023/03/30 05:18:23;;;;;;;8.48;3.88;;;;;;;;;;5018646;28;20041;-77
2023/03/30 05:20:49;;;;;;;10.85;4.07;;;;;;;;;;5019795;28;20055;-77
2023/03/30 05:23:15;;;;;;;9.20;4.32;;;;;;;;;;5017704;28;20037;-77
2023/03/30 05:25:45;;;;;;;9.95;4.32;;;;;;;;;;5005211;28;20041;-77
2023/03/30 05:28:11;;;;;;;10.25;4.20;;;;;;;;;;5015892;28;20040;-77
2023/03/30 05:30:38;;;;;;;10.07;4.10;;;;;;;;;;5018793;28;20079;-77
2023/03/30 05:33:04;;;;;;;11.82;4.05;;;;;;;;;;4996534;28;20607;-77
2023/03/30 05:35:31;;;;;;;8.27;3.58;;;;;;;;;;5020241;28;20405;-77
2023/03/30 05:37:57;;;;;;;10.73;4.32;;;;;;;;;;5016002;28;20041;-78
2023/03/30 05:40:23;;;;;;;12.52;4.18;;;;;;;;;;5018112;28;20546;-77
2023/03/30 05:42:49;;;;;;;8.52;3.83;;;;;;;;;;5016639;28;20072;-76
2023/03/30 05:45:15;;;;;;;10.25;4.15;;;;;;;;;;5021579;28;20037;-76
2023/03/30 05:47:41;;;;;;;9.32;3.42;;;;;;;;;;5015344;28;20330;-76
2023/03/30 05:50:08;;;;;;;8.43;3.72;;;;;;;;;;5013648;28;20048;-76
2023/03/30 05:52:34;;;;;;;11.63;3.53;;;;;;;;;;5011365;28;20048;-77
2023/03/30 05:55:00;;;;;;;8.18;3.75;;;;;;;;;;5016458;28;20132;-77
2023/03/30 05:57:26;;;;;;;12.02;4.10;;;;;;;;;;4982989;28;20146;-77
2023/03/30 05:59:53;;;;;;;10.63;3.53;;;;;;;;;;5015716;28;20053;-76
2023/03/30 06:02:19;;;;;;;6.78;3.40;;;;;;;;;;5013977;28;20086;-76
2023/03/30 06:04:46;;;;;;;14.30;4.03;;;;;;;;;;5014017;28;20512;-77
2023/03/30 06:07:12;;;;;;;11.35;3.33;;;;;;;;;;5032321;28;20705;-77
2023/03/30 06:09:38;;;;;;;11.25;3.72;;;;;;;;;;4998597;28;20069;-76
2023/03/30 06:12:04;;;;;;;11.10;3.80;;;;;;;;;;5021928;28;20433;-77
2023/03/30 06:14:31;;;;;;;14.05;3.97;;;;;;;;;;5016507;28;20052;-76
2023/03/30 06:16:57;;;;;;;9.05;3.63;;;;;;;;;;5019017;28;20049;-76
2023/03/30 06:19:23;;;;;;;12.88;4.22;;;;;;;;;;5017652;28;20584;-75
2023/03/30 06:21:49;;;;;;;12.30;4.30;;;;;;;;;;5019815;28;20053;-77
2023/03/30 06:24:15;;;;;;;12.13;4.70;;;;;;;;;;5016134;28;20482;-77
2023/03/30 06:26:41;;;;;;;10.02;4.10;;;;;;;;;;5014528;28;20092;-77
2023/03/30 06:29:07;;;;;;;9.77;4.35;;;;;;;;;;5011455;28;20048;-76
2023/03/30 06:31:33;;;;;;;10.80;4.32;;;;;;;;;;5015866;28;20049;-77
2023/03/30 06:34:00;;;;;;;15.43;4.40;;;;;;;;;;5017006;28;20048;-77
2023/03/30 06:36:26;;;;;;;10.52;4.40;;;;;;;;;;5016230;28;20382;-78
2023/03/30 06:38:52;;;;;;;13.70;4.57;;;;;;;;;;5019152;28;20045;-77
2023/03/30 06:41:18;;;;;;;15.55;4.65;;;;;;;;;;5015204;28;20148;-77
2023/03/30 06:43:44;;;;;;;13.23;4.70;;;;;;;;;;5014775;28;20497;-77
2023/03/30 06:46:11;;;;;;;12.43;5.50;;;;;;;;;;5017613;28;20634;-76
2023/03/30 06:48:38;;;;;;;14.63;4.20;;;;;;;;;;5016649;28;20075;-76
2023/03/30 06:51:04;;;;;;;12.75;5.05;;;;;;;;;;5019020;28;20048;-76
2023/03/30 06:53:30;;;;;;;11.90;4.35;;;;;;;;;;5017391;28;20052;-76
2023/03/30 06:55:57;;;;;;;12.52;5.25;;;;;;;;;;5017036;28;20033;-76
2023/03/30 06:58:24;;;;;;;10.18;4.68;;;;;;;;;;5013327;28;20152;-76
2023/03/30 07:00:51;;;;;;;13.02;5.35;;;;;;;;;;5016656;28;20113;-76
2023/03/30 07:03:20;;;;;;;7.70;3.88;;;;;;;;;;5017360;28;20768;-76
2023/03/30 07:05:47;;;;;;;12.80;5.05;;;;;;;;;;5016722;28;20049;-76
2023/03/30 07:08:13;;;;;;;14.68;5.45;;;;;;;;;;5021061;28;20032;-77
2023/03/30 07:10:40;;;;;;;11.95;4.65;;;;;;;;;;5018560;28;20383;-76
2023/03/30 07:13:06;;;;;;;7.82;4.28;;;;;;;;;;5018399;28;20064;-77
2023/03/30 07:15:33;;;;;;;11.68;4.95;;;;;;;;;;5020922;28;20084;-77
2023/03/30 07:17:59;;;;;;;7.45;3.53;;;;;;;;;;5017102;28;20528;-77
2023/03/30 07:20:25;;;;;;;12.93;4.47;;;;;;;;;;5017682;28;20056;-77
2023/03/30 07:22:51;;;;;;;13.45;4.25;;;;;;;;;;5015497;28;20045;-77
2023/03/30 07:25:17;;;;;;;12.60;4.50;;;;;;;;;;5033385;28;20068;-77
2023/03/30 07:27:43;;;;;;;13.15;4.55;;;;;;;;;;5016412;28;20037;-77
2023/03/30 07:30:09;;;;;;;13.10;3.58;;;;;;;;;;5018320;28;20128;-76
2023/03/30 07:32:36;;;;;;;9.57;4.22;;;;;;;;;;5014852;28;20049;-77
2023/03/30 07:35:03;;;;;;;7.63;2.88;;;;;;;;;;5018032;28;20045;-77
2023/03/30 07:37:29;;;;;;;11.38;3.15;;;;;;;;;;5015533;28;20052;-77
2023/03/30 07:39:56;;;;;;;20.10;3.65;;;;;;;;;;5009823;28;20055;-77
2023/03/30 07:42:22;;;;;;;11.15;3.08;;;;;;;;;;5010447;28;20147;-77
2023/03/30 07:44:48;;;;;;;9.73;2.47;;;;;;;;;;5017723;28;20143;-76
2023/03/30 07:47:14;;;;;;;16.25;4.47;;;;;;;;;;5016130;28;20072;-77
2023/03/30 07:49:41;;;;;;;19.67;3.70;;;;;;;;;;5012859;28;20528;-77
2023/03/30 07:52:07;;;;;;;25.30;3.13;;;;;;;;;;4996455;28;20056;-77
2023/03/30 07:54:33;;;;;;;18.35;3.92;;;;;;;;;;5009267;28;20777;-77
2023/03/30 07:56:59;;;;;;;15.55;3.15;;;;;;;;;;5015303;28;20083;-77
2023/03/30 07:59:25;;;;;;;17.25;3.08;;;;;;;;;;5028783;28;20640;-77
2023/03/30 08:01:53;;;;;;;14.93;3.70;;;;;;;;;;5014051;28;20124;-76
2023/03/30 08:04:19;;;;;;;12.98;3.35;;;;;;;;;;5010942;28;20062;-77
2023/03/30 08:06:46;;;;;;;18.50;3.58;;;;;;;;;;5009307;28;20655;-76
2023/03/30 08:09:12;;;;;;;19.67;2.85;;;;;;;;;;5009855;28;20049;-76
2023/03/30 08:11:38;;;;;;;19.13;4.15;;;;;;;;;;5010285;28;22352;-78
2023/03/30 08:14:05;;;;;;;16.05;2.97;;;;;;;;;;5016771;28;20103;-77
2023/03/30 08:16:31;;;;;;;20.67;3.78;;;;;;;;;;5009213;28;20045;-77
2023/03/30 08:18:58;;;;;;;21.70;3.58;;;;;;;;;;5008230;28;20050;-77
2023/03/30 08:21:25;;;;;;;25.05;4.28;;;;;;;;;;5016270;28;20048;-76
2023/03/30 08:23:56;;;;;;;16.50;2.80;;;;;;;;;;5016989;28;20091;-76
2023/03/30 08:26:22;;;;;;;17.85;4.82;;;;;;;;;;5016420;28;20048;-77
2023/03/30 08:28:50;;;;;;;16.55;3.92;;;;;;;;;;5009853;28;20041;-77
2023/03/30 08:31:17;;;;;;;14.02;3.25;;;;;;;;;;5011507;28;20049;-76
2023/03/30 08:33:43;;;;;;;18.80;3.67;;;;;;;;;;5013044;28;20099;-77
2023/03/30 08:36:09;;;;;;;19.55;3.97;;;;;;;;;;5016875;28;20044;-77
2023/03/30 08:38:36;;;;;;;18.45;4.10;;;;;;;;;;5016178;28;20041;-76
2023/03/30 08:41:18;;;;;;;23.15;4.30;;;;;;;;;;5008688;28;20493;-76
2023/03/30 08:44:10;;;;;;;13.93;4.18;;;;;;;;;;5014019;28;20045;-76
2023/03/30 08:46:37;;;;;;;25.92;4.97;;;;;;;;;;5016175;28;20053;-76
2023/03/30 08:49:08;;;;;;;17.98;4.25;;;;;;;;;;5031417;28;20037;-77
2023/03/30 08:51:35;;;;;;;21.13;4.70;;;;;;;;;;5015809;28;20190;-76
2023/03/30 08:54:04;;;;;;;21.85;4.18;;;;;;;;;;5013663;28;20033;-76
2023/03/30 08:56:41;;;;;;;24.17;5.35;;;;;;;;;;5013161;28;20053;-77
2023/03/30 08:59:29;;;;;;;22.90;4.15;;;;;;;;;;5012731;28;20049;-76
2023/03/30 09:01:55;;;;;;;21.58;3.88;;;;;;;;;;5013158;28;20570;-76
2023/03/30 09:04:21;;;;;;;18.67;4.43;;;;;;;;;;5015658;28;20045;-76
2023/03/30 09:06:52;;;;;;;12.73;3.05;;;;;;;;;;5017778;28;20065;-77
2023/03/30 09:09:20;;;;;;;28.85;5.55;;;;;;;;;;5015432;28;20040;-76
2023/03/30 09:11:49;;;;;;;31.88;5.47;;;;;;;;;;5012912;28;20072;-76
2023/03/30 09:14:19;;;;;;;23.77;4.88;;;;;;;;;;5012346;28;20050;-76
2023/03/30 09:16:50;;;;;;;24.00;5.00;;;;;;;;;;5001639;28;20126;-77
2023/03/30 09:19:21;;;;;;;21.98;4.55;;;;;;;;;;5012917;28;21250;-77
2023/03/30 09:21:48;;;;;;;21.30;4.13;;;;;;;;;;5012408;28;20037;-77
2023/03/30 09:24:24;;;;;;;11.93;2.90;;;;;;;;;;5016027;28;20049;-77
2023/03/30 09:27:09;;;;;;;20.88;4.03;;;;;;;;;;5016763;28;20049;-78
2023/03/30 09:29:40;;;;;;;19.48;3.55;;;;;;;;;;5019267;28;20551;-78
2023/03/30 09:32:09;;;;;;;29.70;4.93;;;;;;;;;;5019563;28;20048;-78
2023/03/30 09:34:44;;;;;;;25.98;4.00;;;;;;;;;;5018542;28;20049;-78
2023/03/30 09:37:17;;;;;;;16.13;4.50;;;;;;;;;;5019062;28;20048;-77
2023/03/30 09:39:44;;;;;;;22.95;4.07;;;;;;;;;;5019857;28;20914;-77
2023/03/30 09:42:26;;;;;;;23.52;4.75;;;;;;;;;;5016981;28;20045;-78
2023/03/30 09:44:58;;;;;;;25.38;4.40;;;;;;;;;;5019565;28;20566;-77
2023/03/30 09:47:25;;;;;;;23.55;4.82;;;;;;;;;;5020995;28;20065;-78
2023/03/30 09:50:02;;;;;;;31.75;5.35;;;;;;;;;;5018736;28;20473;-78
2023/03/30 09:52:35;;;;;;;23.92;4.07;;;;;;;;;;5019117;28;20076;-78
2023/03/30 09:55:22;;;;;;;28.00;4.83;;;;;;;;;;5016869;28;20156;-78
2023/03/30 09:57:52;;;;;;;18.63;4.15;;;;;;;;;;5015333;28;20075;-79
2023/03/30 10:00:24;;;;;;;22.30;3.97;;;;;;;;;;5016548;28;20049;-78
2023/03/30 10:02:56;;;;;;;13.05;3.38;;;;;;;;;;5011992;28;20497;-78
2023/03/30 10:05:22;;;;;;;24.63;4.25;;;;;;;;;;5010895;28;20520;-78
2023/03/30 10:07:59;;;;;;;13.98;2.97;;;;;;;;;;5016118;28;20051;-78
2023/03/30 10:10:28;;;;;;;17.70;3.20;;;;;;;;;;5016561;28;20049;-78
2023/03/30 10:12:55;;;;;;;11.88;2.70;;;;;;;;;;5017119;28;20064;-79
2023/03/30 10:15:25;;;;;;;18.88;3.30;;;;;;;;;;5008158;28;20087;-79
2023/03/30 10:17:55;;;;;;;12.18;2.53;;;;;;;;;;5011653;28;20048;-79
2023/03/30 10:20:24;;;;;;;17.55;3.22;;;;;;;;;;5016843;28;20053;-79
2023/03/30 10:22:55;;;;;;;13.98;3.63;;;;;;;;;;4997104;28;20484;-79
2023/03/30 10:25:22;;;;;;;16.38;3.10;;;;;;;;;;5012636;28;20694;-81
2023/03/30 10:27:49;;;;;;;21.55;3.55;;;;;;;;;;5009056;28;20506;-81
2023/03/30 10:30:22;;;;;;;16.08;3.08;;;;;;;;;;5011240;28;20072;-80
2023/03/30 10:32:48;;;;;;;13.95;2.45;;;;;;;;;;5013233;28;20096;-80
2023/03/30 10:35:18;;;;;;;14.27;2.53;;;;;;;;;;5012951;28;20539;-80
2023/03/30 10:37:48;;;;;;;18.15;3.42;;;;;;;;;;5013749;28;20041;-80
2023/03/30 10:40:27;;;;;;;18.73;3.50;;;;;;;;;;5009902;28;20048;-79
2023/03/30 10:42:54;;;;;;;17.67;2.78;;;;;;;;;;4996079;28;20154;-79
2023/03/30 10:45:26;;;;;;;15.98;2.80;;;;;;;;;;5009559;28;20049;-80
2023/03/30 10:48:01;;;;;;;13.55;3.30;;;;;;;;;;4999918;28;20041;-78
2023/03/30 10:50:34;;;;;;;17.17;2.50;;;;;;;;;;5017984;28;20057;-78
2023/03/30 10:53:06;;;;;;;13.57;3.57;;;;;;;;;;5016139;28;20060;-79
2023/03/30 10:55:51;;;;;;;8.10;1.98;;;;;;;;;;5015215;28;21680;-79
2023/03/30 10:58:18;;;;;;;17.23;2.83;;;;;;;;;;4991207;28;20056;-79
2023/03/30 11:00:57;;;;;;;14.93;2.58;;;;;;;;;;5013262;28;20045;-79
2023/03/30 11:03:28;;;;;;;10.18;2.63;;;;;;;;;;5011505;28;20111;-79
2023/03/30 11:06:02;;;;;;;15.93;3.65;;;;;;;;;;5013301;28;20095;-79
2023/03/30 11:08:39;;;;;;;14.73;3.60;;;;;;;;;;5014199;28;20042;-79
2023/03/30 11:11:05;;;;;;;13.30;3.45;;;;;;;;;;5019271;28;20041;-79
2023/03/30 11:13:48;;;;;;;14.55;3.13;;;;;;;;;;5012903;28;20064;-79
2023/03/30 11:16:26;;;;;;;18.05;3.65;;;;;;;;;;4993275;28;20111;-79
2023/03/30 11:19:04;;;;;;;15.35;3.67;;;;;;;;;;5013502;28;20052;-79
2023/03/30 11:21:34;;;;;;;21.00;4.50;;;;;;;;;;5017070;28;20041;-79
2023/03/30 11:24:20;;;;;;;18.23;3.33;;;;;;;;;;5013850;28;20796;-79
2023/03/30 11:26:46;;;;;;;18.20;3.28;;;;;;;;;;5016354;28;20548;-78
2023/03/30 11:29:31;;;;;;;18.25;3.05;;;;;;;;;;5015123;28;21196;-80
2023/03/30 11:32:17;;;;;;;19.77;4.00;;;;;;;;;;5016622;28;20064;-78
2023/03/30 11:35:02;;;;;;;19.73;3.17;;;;;;;;;;5003660;28;20072;-77
2023/03/30 11:37:29;;;;;;;17.75;3.05;;;;;;;;;;5000722;28;20132;-77
2023/03/30 11:40:10;;;;;;;15.45;2.95;;;;;;;;;;5017796;28;20049;-77
2023/03/30 11:42:36;;;;;;;20.00;3.45;;;;;;;;;;5012768;28;20045;-78
2023/03/30 11:45:12;;;;;;;27.52;4.25;;;;;;;;;;5016036;28;20053;-78
2023/03/30 11:47:44;;;;;;;17.45;3.30;;;;;;;;;;5014478;28;20896;-77
2023/03/30 11:50:17;;;;;;;26.63;4.10;;;;;;;;;;5019070;28;20052;-78
2023/03/30 11:53:03;;;;;;;21.83;3.75;;;;;;;;;;5000166;28;20146;-79
2023/03/30 11:55:32;;;;;;;26.27;5.03;;;;;;;;;;4995525;28;20062;-78
2023/03/30 11:57:58;;;;;;;20.45;4.25;;;;;;;;;;5018373;28;20136;-77
2023/03/30 12:00:27;;;;;;;13.60;3.08;;;;;;;;;;5017533;28;20044;-78
2023/03/30 12:02:57;;;;;;;19.63;3.40;;;;;;;;;;5020562;28;20409;-78
2023/03/30 12:05:29;;;;;;;15.52;3.72;;;;;;;;;;5023393;28;20097;-78
2023/03/30 12:08:02;;;;;;;15.85;3.25;;;;;;;;;;5025893;28;20044;-78
2023/03/30 12:10:42;;;;;;;18.52;3.63;;;;;;;;;;5026014;28;20041;-78
2023/03/30 12:13:12;;;;;;;18.73;3.55;;;;;;;;;;5026294;28;20053;-78
2023/03/30 12:15:39;;;;;;;18.67;3.33;;;;;;;;;;5026847;28;20072;-77
2023/03/30 12:18:24;;;;;;;16.25;3.60;;;;;;;;;;5027147;28;20154;-78
2023/03/30 12:20:53;;;;;;;18.10;5.18;;;;;;;;;;5024408;28;20560;-78
2023/03/30 12:23:28;;;;;;;19.98;3.70;;;;;;;;;;5010685;28;20045;-78
2023/03/30 12:26:10;;;;;;;19.65;4.05;;;;;;;;;;5027344;28;20478;-78
2023/03/30 12:28:59;;;;;;;17.20;3.85;;;;;;;;;;5024573;28;20041;-78
2023/03/30 12:31:44;;;;;;;14.23;3.28;;;;;;;;;;5017402;28;20037;-78
2023/03/30 12:34:10;;;;;;;23.73;4.10;;;;;;;;;;5035361;28;20048;-79
2023/03/30 12:36:39;;;;;;;20.58;4.45;;;;;;;;;;5001084;28;20157;-79
2023/03/30 12:39:24;;;;;;;19.65;3.72;;;;;;;;;;5022372;28;20058;-78
2023/03/30 12:41:56;;;;;;;21.08;3.80;;;;;;;;;;5002977;28;20049;-77
2023/03/30 12:44:34;;;;;;;18.42;4.18;;;;;;;;;;5018034;28;20077;-78
2023/03/30 12:47:03;;;;;;;17.42;3.67;;;;;;;;;;5020851;28;20049;-78
2023/03/30 12:49:40;;;;;;;19.58;4.63;;;;;;;;;;5020479;28;20073;-78
2023/03/30 12:52:14;;;;;;;21.63;4.53;;;;;;;;;;5019941;28;20160;-78
2023/03/30 12:54:40;;;;;;;;;;;;;;;;;;5002572;28;20060;-78
2023/03/30 12:57:21;;;;;;;24.80;3.70;;;;;;;;;;5008728;28;21374;-79
2023/03/30 12:59:53;;;;;;;24.25;3.17;;;;;;;;;;5018043;28;20053;-79
2023/03/30 13:02:28;;;;;;;22.67;4.28;;;;;;;;;;5002624;28;20052;-79
2023/03/30 13:04:55;;;;;;;19.90;3.90;;;;;;;;;;5019039;28;20093;-79
2023/03/30 13:07:23;;;;;;;16.52;3.67;;;;;;;;;;5020927;28;20045;-79
2023/03/30 13:09:52;;;;;;;20.15;4.65;;;;;;;;;;5023556;28;20041;-78
2023/03/30 13:12:24;;;;;;;21.27;3.90;;;;;;;;;;5021918;28;20492;-79
2023/03/30 13:14:57;;;;;;;24.30;4.75;;;;;;;;;;5022442;28;20059;-79
2023/03/30 13:17:25;;;;;;;24.30;4.47;;;;;;;;;;5015770;28;20067;-79
2023/03/30 13:20:11;;;;;;;24.48;4.28;;;;;;;;;;5015350;28;20054;-78
2023/03/30 13:22:37;;;;;;;24.00;4.35;;;;;;;;;;5016236;28;20052;-79
2023/03/30 13:25:28;;;;;;;22.15;5.13;;;;;;;;;;5012165;28;20052;-79
2023/03/30 13:27:57;;;;;;;24.65;4.55;;;;;;;;;;5015817;28;20064;-78
2023/03/30 13:30:28;;;;;;;23.85;4.22;;;;;;;;;;5013538;28;20614;-79
2023/03/30 13:33:14;;;;;;;18.33;3.90;;;;;;;;;;5011079;28;20053;-79
2023/03/30 13:35:47;;;;;;;20.58;4.25;;;;;;;;;;5012336;28;20057;-79
2023/03/30 13:38:31;;;;;;;18.95;4.00;;;;;;;;;;5010913;28;20041;-79
2023/03/30 13:41:03;;;;;;;19.63;4.30;;;;;;;;;;5012807;28;20076;-80
2023/03/30 13:43:32;;;;;;;16.98;3.85;;;;;;;;;;5011648;28;20060;-79
2023/03/30 13:46:01;;;;;;;19.55;3.97;;;;;;;;;;5012284;28;20185;-79
2023/03/30 13:48:47;;;;;;;21.23;4.03;;;;;;;;;;5009032;28;20231;-79
2023/03/30 13:51:15;;;;;;;20.77;3.28;;;;;;;;;;5011016;28;20051;-79
2023/03/30 13:53:46;;;;;;;16.20;3.30;;;;;;;;;;5012282;28;20118;-79
2023/03/30 13:56:12;;;;;;;24.52;4.13;;;;;;;;;;5011845;28;20053;-79
2023/03/30 13:58:40;;;;;;;16.35;4.05;;;;;;;;;;5012567;28;20033;-79
2023/03/30 14:01:06;;;;;;;14.43;3.75;;;;;;;;;;5012658;28;20411;-79
2023/03/30 14:03:35;;;;;;;17.67;3.15;;;;;;;;;;5016621;28;20122;-79
2023/03/30 14:06:02;;;;;;;19.02;4.20;;;;;;;;;;5009978;28;20144;-79
2023/03/30 14:08:29;;;;;;;23.67;4.20;;;;;;;;;;5011103;28;20117;-80
2023/03/30 14:10:56;;;;;;;23.08;4.82;;;;;;;;;;5013514;28;20049;-79
2023/03/30 14:13:22;;;;;;;20.73;3.75;;;;;;;;;;5013882;28;20068;-78
2023/03/30 14:15:50;;;;;;;24.27;4.97;;;;;;;;;;5012948;28;20630;-79
2023/03/30 14:18:21;;;;;;;24.33;4.63;;;;;;;;;;5012170;28;20048;-80
2023/03/30 14:20:51;;;;;;;25.05;4.28;;;;;;;;;;5008939;28;20049;-79
2023/03/30 14:23:24;;;;;;;23.00;3.95;;;;;;;;;;5014595;28;20045;-81
2023/03/30 14:25:53;;;;;;;25.25;4.72;;;;;;;;;;5022351;28;20095;-81
2023/03/30 14:28:20;;;;;;;23.63;4.32;;;;;;;;;;5008369;28;20041;-80
2023/03/30 14:30:50;;;;;;;21.98;4.38;;;;;;;;;;5019864;28;20090;-80
2023/03/30 14:33:16;;;;;;;30.33;5.32;;;;;;;;;;5017226;28;20489;-80
2023/03/30 14:35:48;;;;;;;25.98;4.70;;;;;;;;;;5017380;28;20139;-80
2023/03/30 14:38:16;;;;;;;24.40;5.45;;;;;;;;;;5021227;28;20091;-81
2023/03/30 14:40:43;;;;;;;20.52;4.10;;;;;;;;;;5017879;28;20071;-80
2023/03/30 14:43:13;;;;;;;23.70;4.05;;;;;;;;;;5018620;28;20064;-81
2023/03/30 14:45:40;;;;;;;21.83;4.90;;;;;;;;;;5020111;28;20597;-80